Terminal Aerodrome Forecast
Issued by NWS

Home | Current Version | Previous Version | Graphics & Text | Print | Product List | Glossary On
Versions: 1 2 3 4 5 6 7 8 9 10 11 12
000
FTUS45 KGGW 180526
TAFOLF
TAF
KOLF 180526Z 1806/1906 07013KT 1SM -SN BLSN OVC015
      TEMPO 1806/1809 07020G30KT 1/2SM SN BLSN VV009
     FM181300 03013KT 4SM -SN OVC015
     FM181500 02010KT P6SM VCSH BKN025=

USA.gov is the U.S. government's official web portal to all federal, state and local government web resources and services.